Terminal Aerodrome Forecast
Issued by NWS Dallas/Fort Worth, TX

Home | Current Version | Previous Version | Text Only | Print | Product List | Glossary On
Versions: 1 2 3 4 5 6 7 8 9 10 11 12 13 14 15 16 17 18 19 20 21 22 23 24 25 26 27 28 29 30 31 32
369
FTUS44 KFWD 290520
TAFACT
TAF
KACT 290520Z 2906/3006 14006KT P6SM SKC
     FM290900 17008KT P6SM BKN012
     FM291600 16012KT P6SM SCT035=

USA.gov is the U.S. government's official web portal to all federal, state and local government web resources and services.